Time;durP1;ratioP1;P1;durP2;ratioP2;P2;SDS_P1;SDS_P2;PMS_P1;PMS_P2;Temp;Humidity;BMP_temperature;BMP_pressure;BME280_temperature;BME280_humidity;BME280_pressure;Samples;Min_cycle;Max_cycle;Signal;HPM_P1;HPM_P2
2021/06/16 04:12:58;;;;;;;0.20;0.20;;;20.00;99.90;;;;;;4875759;29;20236;-77
2021/06/16 04:15:26;;;;;;;0.30;0.30;;;19.90;99.90;;;;;;4883900;29;20245;-76
2021/06/16 04:17:58;;;;;;;0.20;0.20;;;19.90;99.90;;;;;;4882771;29;20241;-77
2021/06/16 04:20:26;;;;;;;0.30;0.30;;;;;;;;;;4881991;29;20208;-77
2021/06/16 04:22:54;;;;;;;0.30;0.30;;;20.00;99.90;;;;;;4882592;29;20275;-77
2021/06/16 04:25:23;;;;;;;0.25;0.25;;;20.10;99.90;;;;;;4880090;29;20216;-76
2021/06/16 04:27:51;;;;;;;0.30;0.30;;;20.10;99.90;;;;;;4877680;29;20208;-76
2021/06/16 04:30:23;;;;;;;0.30;0.30;;;20.40;99.90;;;;;;4877904;29;20256;-76
2021/06/16 04:32:52;;;;;;;0.20;0.20;;;20.20;99.90;;;;;;4878323;29;20280;-77
2021/06/16 04:35:20;;;;;;;0.20;0.20;;;20.20;99.90;;;;;;4869150;29;20272;-76
2021/06/16 04:37:48;;;;;;;0.20;0.20;;;20.40;99.90;;;;;;4859510;29;20686;-76
2021/06/16 04:40:17;;;;;;;0.20;0.20;;;20.60;99.90;;;;;;4859244;29;20260;-76
2021/06/16 04:42:45;;;;;;;0.20;0.20;;;20.50;99.90;;;;;;4859250;29;20863;-76
2021/06/16 04:45:14;;;;;;;0.30;0.30;;;20.50;99.90;;;;;;4860386;29;20627;-77
2021/06/16 04:47:43;;;;;;;0.20;0.20;;;20.50;99.90;;;;;;4861495;29;20213;-76
2021/06/16 04:50:15;;;;;;;0.20;0.20;;;20.50;99.90;;;;;;4856057;29;20194;-75
2021/06/16 04:52:43;;;;;;;0.20;0.20;;;20.70;99.90;;;;;;4855466;29;20193;-76
2021/06/16 04:55:13;;;;;;;0.20;0.20;;;20.70;99.90;;;;;;4859860;29;20217;-76
2021/06/16 04:57:40;;;;;;;0.20;0.20;;;20.80;99.90;;;;;;4861385;29;20268;-77
2021/06/16 05:00:11;;;;;;;0.20;0.20;;;20.70;99.90;;;;;;4862191;29;20861;-76
2021/06/16 05:02:40;;;;;;;0.20;0.20;;;20.70;99.90;;;;;;4860805;29;20299;-77
2021/06/16 05:05:11;;;;;;;0.20;0.20;;;20.80;99.90;;;;;;4861508;29;20205;-76
2021/06/16 05:07:39;;;;;;;0.20;0.20;;;20.90;99.90;;;;;;4861443;29;20940;-77
2021/06/16 05:10:08;;;;;;;0.20;0.20;;;21.10;99.90;;;;;;4863790;29;20208;-76
2021/06/16 05:12:36;;;;;;;0.20;0.20;;;21.20;99.90;;;;;;4865618;29;20222;-77
2021/06/16 05:15:05;;;;;;;0.20;0.20;;;21.20;99.90;;;;;;4865683;29;20295;-77
2021/06/16 05:17:33;;;;;;;0.20;0.20;;;21.30;99.90;;;;;;4865517;29;20209;-77
2021/06/16 05:20:01;;;;;;;0.20;0.20;;;21.40;99.90;;;;;;4865595;29;20284;-77
2021/06/16 05:22:31;;;;;;;0.20;0.20;;;21.40;99.90;;;;;;4865838;29;20228;-77
2021/06/16 05:25:00;;;;;;;0.20;0.20;;;21.60;99.90;;;;;;4865958;29;20193;-76
2021/06/16 05:27:28;;;;;;;0.20;0.20;;;21.60;99.90;;;;;;4865736;29;20205;-76
2021/06/16 05:29:56;;;;;;;0.20;0.20;;;21.50;99.90;;;;;;4865494;29;20204;-77
2021/06/16 05:32:25;;;;;;;0.20;0.20;;;21.60;99.90;;;;;;4865754;29;20716;-77
2021/06/16 05:34:53;;;;;;;0.20;0.20;;;21.70;99.90;;;;;;4864369;29;20209;-77
2021/06/16 05:37:21;;;;;;;0.20;0.20;;;21.80;99.90;;;;;;4866211;29;20208;-77
2021/06/16 05:39:51;;;;;;;0.20;0.20;;;21.80;99.90;;;;;;4865355;29;20253;-77
2021/06/16 05:42:19;;;;;;;0.20;0.20;;;21.90;99.90;;;;;;4866719;29;20639;-77
2021/06/16 05:44:47;;;;;;;0.20;0.20;;;21.90;99.90;;;;;;4867299;29;20268;-77
2021/06/16 05:47:15;;;;;;;0.20;0.20;;;22.00;99.90;;;;;;4866282;29;20217;-77
2021/06/16 05:49:43;;;;;;;0.20;0.20;;;22.00;99.90;;;;;;4866850;29;20204;-78
2021/06/16 05:52:12;;;;;;;0.20;0.20;;;22.20;99.90;;;;;;4869397;29;20232;-77
2021/06/16 05:54:39;;;;;;;0.20;0.20;;;22.20;99.90;;;;;;4868942;29;20213;-77
2021/06/16 05:57:09;;;;;;;0.20;0.20;;;22.20;99.90;;;;;;4866270;29;20269;-76
2021/06/16 05:59:41;;;;;;;0.20;0.20;;;22.30;99.90;;;;;;4879804;29;20251;-76
2021/06/16 06:02:09;;;;;;;0.20;0.20;;;22.30;99.90;;;;;;4883394;29;20272;-76
2021/06/16 06:04:38;;;;;;;0.20;0.20;;;22.50;99.90;;;;;;4882013;29;20275;-76
2021/06/16 06:07:06;;;;;;;0.20;0.20;;;22.30;99.90;;;;;;4882807;29;20256;-75
2021/06/16 06:09:35;;;;;;;0.20;0.20;;;;;;;;;;4882380;29;20211;-76
2021/06/16 06:12:03;;;;;;;0.20;0.20;;;22.40;99.90;;;;;;4884667;29;20247;-76
2021/06/16 06:14:32;;;;;;;0.20;0.20;;;22.60;99.90;;;;;;4886054;29;20218;-77
2021/06/16 06:17:00;;;;;;;0.20;0.20;;;22.60;99.90;;;;;;4883546;29;20267;-76
2021/06/16 06:19:29;;;;;;;0.20;0.20;;;;;;;;;;4883003;29;20223;-77
2021/06/16 06:21:57;;;;;;;0.20;0.20;;;22.70;99.90;;;;;;4886348;29;20224;-76
2021/06/16 06:24:25;;;;;;;0.20;0.20;;;;;;;;;;4875836;29;20265;-77
2021/06/16 06:26:53;;;;;;;0.20;0.20;;;22.90;99.90;;;;;;4867507;29;20217;-77
2021/06/16 06:29:22;;;;;;;0.20;0.20;;;23.00;99.90;;;;;;4867816;29;20201;-77
2021/06/16 06:31:52;;;;;;;0.20;0.20;;;23.10;99.90;;;;;;4869530;29;20233;-77
2021/06/16 06:34:21;;;;;;;0.20;0.20;;;23.20;99.90;;;;;;4867356;29;20292;-77
2021/06/16 06:36:49;;;;;;;0.20;0.20;;;23.00;99.90;;;;;;4866439;29;20213;-77
2021/06/16 06:39:18;;;;;;;0.20;0.20;;;;;;;;;;4868797;29;20265;-77
2021/06/16 06:41:46;;;;;;;0.20;0.20;;;;;;;;;;4871706;29;20228;-76
2021/06/16 06:44:15;;;;;;;0.20;0.20;;;;;;;;;;4873734;29;20213;-76
2021/06/16 06:46:43;;;;;;;0.10;0.10;;;;;;;;;;4869031;29;20208;-77
2021/06/16 06:49:19;;;;;;;0.20;0.20;;;23.20;99.90;;;;;;4866382;29;20208;-77
2021/06/16 06:51:51;;;;;;;0.20;0.20;;;;;;;;;;4873707;29;20292;-78
2021/06/16 06:54:19;;;;;;;0.20;0.20;;;23.20;99.90;;;;;;4874036;29;20208;-78
2021/06/16 06:56:47;;;;;;;0.10;0.10;;;23.20;99.90;;;;;;4871976;29;20686;-78
2021/06/16 06:59:15;;;;;;;0.10;0.10;;;;;;;;;;4867751;29;20763;-76
2021/06/16 07:01:43;;;;;;;0.20;0.20;;;23.20;99.90;;;;;;4862671;29;20634;-76
2021/06/16 07:04:13;;;;;;;0.20;0.20;;;23.30;99.90;;;;;;4865242;29;20667;-76
2021/06/16 07:06:40;;;;;;;0.20;0.20;;;23.50;99.90;;;;;;4864763;29;20837;-77
2021/06/16 07:09:09;;;;;;;0.20;0.20;;;;;;;;;;4865860;29;20611;-76
2021/06/16 07:11:37;;;;;;;0.20;0.20;;;23.70;99.90;;;;;;4864804;29;20237;-77
2021/06/16 07:14:05;;;;;;;0.10;0.10;;;23.50;99.90;;;;;;4865141;29;20217;-77
2021/06/16 07:16:32;;;;;;;0.10;0.10;;;23.20;99.90;;;;;;4863862;29;20287;-77
2021/06/16 07:19:00;;;;;;;0.10;0.10;;;23.70;99.90;;;;;;4864199;29;20288;-76
2021/06/16 07:21:30;;;;;;;0.20;0.20;;;23.80;99.90;;;;;;4864110;29;20757;-77
2021/06/16 07:23:58;;;;;;;0.10;0.10;;;24.00;99.90;;;;;;4864332;29;20205;-77
2021/06/16 07:26:26;;;;;;;0.10;0.10;;;;;;;;;;4864146;29;20217;-76
2021/06/16 07:28:54;;;;;;;0.20;0.20;;;23.90;99.90;;;;;;4863750;29;20204;-77
2021/06/16 07:31:22;;;;;;;0.10;0.10;;;24.10;99.90;;;;;;4864014;29;20285;-77
2021/06/16 07:33:50;;;;;;;0.10;0.10;;;24.10;99.90;;;;;;4864274;29;20312;-76
2021/06/16 07:36:18;;;;;;;0.20;0.20;;;;;;;;;;4864568;29;20201;-77
2021/06/16 07:38:47;;;;;;;0.20;0.20;;;25.00;99.90;;;;;;4864616;29;20240;-76
2021/06/16 07:41:15;;;;;;;0.10;0.10;;;25.00;99.90;;;;;;4864107;29;20233;-77
2021/06/16 07:43:43;;;;;;;0.10;0.10;;;25.40;99.90;;;;;;4864515;29;20579;-77
2021/06/16 07:46:11;;;;;;;0.10;0.10;;;25.60;99.90;;;;;;4863758;29;20213;-77
2021/06/16 07:48:39;;;;;;;0.10;0.10;;;25.00;99.90;;;;;;4864032;29;20209;-76
2021/06/16 07:51:07;;;;;;;0.10;0.10;;;25.10;99.90;;;;;;4863934;29;20225;-77
2021/06/16 07:53:35;;;;;;;0.10;0.10;;;25.20;99.90;;;;;;4863744;29;20253;-76
2021/06/16 07:56:04;;;;;;;0.10;0.10;;;25.30;99.90;;;;;;4862690;29;20212;-77
2021/06/16 07:58:32;;;;;;;0.10;0.10;;;25.30;99.90;;;;;;4863319;29;20208;-77
2021/06/16 08:01:01;;;;;;;0.10;0.10;;;;;;;;;;4862655;29;20232;-76
2021/06/16 08:03:29;;;;;;;0.10;0.10;;;25.20;99.80;;;;;;4862694;29;20212;-77
2021/06/16 08:05:57;;;;;;;0.10;0.10;;;25.20;99.90;;;;;;4862134;29;20216;-76
2021/06/16 08:08:33;;;;;;;0.10;0.10;;;25.30;99.90;;;;;;4861853;29;20707;-77
2021/06/16 08:11:02;;;;;;;0.10;0.10;;;25.10;99.90;;;;;;4863744;29;20736;-77
2021/06/16 08:13:32;;;;;;;0.10;0.10;;;25.20;99.90;;;;;;4866683;29;20213;-77
2021/06/16 08:16:00;;;;;;;0.20;0.20;;;25.30;99.90;;;;;;4864004;29;20734;-77
2021/06/16 08:18:28;;;;;;;0.10;0.10;;;25.70;99.90;;;;;;4863581;29;20214;-77
2021/06/16 08:20:56;;;;;;;0.10;0.10;;;25.30;99.40;;;;;;4876885;29;20232;-76
2021/06/16 08:23:24;;;;;;;0.10;0.10;;;25.40;99.60;;;;;;4876412;29;20212;-77
2021/06/16 08:25:52;;;;;;;0.10;0.10;;;25.50;99.50;;;;;;4872771;29;20212;-77
2021/06/16 08:28:20;;;;;;;0.10;0.10;;;25.60;99.30;;;;;;4872811;29;20241;-77
2021/06/16 08:30:49;;;;;;;0.10;0.10;;;25.60;99.30;;;;;;4872837;29;20233;-75
2021/06/16 08:33:17;;;;;;;0.10;0.10;;;25.50;99.30;;;;;;4871460;29;20204;-76
2021/06/16 08:35:46;;;;;;;0.10;0.10;;;;;;;;;;4869260;29;20208;-77
2021/06/16 08:38:14;;;;;;;0.10;0.10;;;25.50;99.80;;;;;;4866867;29;20212;-77
2021/06/16 08:40:42;;;;;;;0.10;0.10;;;;;;;;;;4866277;29;20265;-75
2021/06/16 08:43:13;;;;;;;0.10;0.10;;;25.60;99.70;;;;;;4864857;29;20281;-77
2021/06/16 08:45:42;;;;;;;0.10;0.10;;;25.70;99.60;;;;;;4864320;29;20197;-77
2021/06/16 08:48:12;;;;;;;0.10;0.10;;;25.50;99.70;;;;;;4865491;29;20221;-77
2021/06/16 08:50:40;;;;;;;0.10;0.10;;;25.60;99.50;;;;;;4865413;29;20289;-76
2021/06/16 08:53:08;;;;;;;0.17;0.17;;;25.60;99.20;;;;;;4864975;29;20212;-77
2021/06/16 08:55:36;;;;;;;0.10;0.10;;;25.20;99.50;;;;;;4864133;29;20212;-76
2021/06/16 08:58:04;;;;;;;0.10;0.10;;;25.40;99.80;;;;;;4863533;29;20212;-77
2021/06/16 09:00:32;;;;;;;0.10;0.10;;;25.40;99.50;;;;;;4863622;29;20228;-77
2021/06/16 09:03:00;;;;;;;0.10;0.10;;;25.60;99.30;;;;;;4865033;29;20588;-76
2021/06/16 09:05:39;;;;;;;0.10;0.10;;;25.80;99.80;;;;;;4864858;29;20216;-77
2021/06/16 09:08:19;;;;;;;0.10;0.10;;;26.00;99.80;;;;;;4864651;29;20273;-77
2021/06/16 09:10:49;;;;;;;0.10;0.10;;;26.20;98.60;;;;;;4863736;29;20236;-77
2021/06/16 09:13:29;;;;;;;0.10;0.10;;;26.30;99.30;;;;;;4863654;29;20225;-77
2021/06/16 09:15:59;;;;;;;0.10;0.10;;;26.20;97.90;;;;;;4861744;29;20233;-77
2021/06/16 09:18:28;;;;;;;0.10;0.10;;;26.10;97.90;;;;;;4861937;29;20213;-76
2021/06/16 09:20:58;;;;;;;0.20;0.20;;;26.30;97.70;;;;;;4861304;29;20232;-77
2021/06/16 09:23:28;;;;;;;0.10;0.10;;;25.80;98.60;;;;;;4861750;29;20209;-77
2021/06/16 09:26:10;;;;;;;0.10;0.10;;;25.90;98.70;;;;;;4861554;29;20303;-77
2021/06/16 09:28:41;;;;;;;0.10;0.10;;;26.00;98.70;;;;;;4861765;29;20268;-76
2021/06/16 09:31:11;;;;;;;0.10;0.10;;;26.10;98.10;;;;;;4861996;29;20311;-76
2021/06/16 09:33:39;;;;;;;0.10;0.10;;;26.30;98.10;;;;;;4860857;29;20208;-76
2021/06/16 09:36:13;;;;;;;0.10;0.10;;;26.30;97.80;;;;;;4861326;29;20213;-76
2021/06/16 09:38:44;;;;;;;0.10;0.10;;;26.40;98.20;;;;;;4862030;29;20224;-77
2021/06/16 09:41:14;;;;;;;0.10;0.10;;;26.50;97.70;;;;;;4861796;29;20232;-77
2021/06/16 09:43:42;;;;;;;0.10;0.10;;;26.10;97.70;;;;;;4862385;29;20212;-77
2021/06/16 09:46:12;;;;;;;0.10;0.10;;;26.10;98.00;;;;;;4861716;29;20257;-76
2021/06/16 09:48:42;;;;;;;0.10;0.10;;;26.30;98.40;;;;;;4861468;29;20220;-77
2021/06/16 09:51:22;;;;;;;0.20;0.20;;;26.30;97.50;;;;;;4861099;29;20220;-77
2021/06/16 09:54:14;;;;;;;0.10;0.10;;;26.40;97.10;;;;;;4863961;29;20197;-77
2021/06/16 09:56:45;;;;;;;0.10;0.10;;;26.50;96.30;;;;;;4866279;29;20216;-77
2021/06/16 09:59:13;;;;;;;0.10;0.10;;;26.20;96.50;;;;;;4868948;29;20221;-76
2021/06/16 10:01:50;;;;;;;0.10;0.10;;;26.60;96.30;;;;;;4864580;29;20705;-75
2021/06/16 10:04:36;;;;;;;0.10;0.10;;;26.50;96.50;;;;;;4865283;29;20196;-76
2021/06/16 10:07:22;;;;;;;0.10;0.10;;;26.60;95.80;;;;;;4864465;29;20643;-76
2021/06/16 10:09:56;;;;;;;0.10;0.10;;;26.90;96.00;;;;;;4864885;29;20212;-76
2021/06/16 10:12:26;;;;;;;0.10;0.10;;;26.80;94.90;;;;;;4864768;29;20645;-77
2021/06/16 10:14:55;;;;;;;0.10;0.10;;;26.50;93.60;;;;;;4864269;29;20612;-76
2021/06/16 10:17:27;;;;;;;0.10;0.10;;;26.90;92.60;;;;;;4864006;29;20205;-78
2021/06/16 10:19:56;;;;;;;0.10;0.10;;;27.00;92.90;;;;;;4864179;29;20200;-76
2021/06/16 10:22:25;;;;;;;0.10;0.10;;;27.00;93.60;;;;;;4864416;29;20602;-77
2021/06/16 10:24:54;;;;;;;0.10;0.10;;;27.00;94.10;;;;;;4903956;23;20234;-84
2021/06/16 10:27:27;;;;;;;0.10;0.10;;;27.00;94.10;;;;;;4902318;29;20609;-84
2021/06/16 10:30:01;;;;;;;0.10;0.10;;;26.80;93.80;;;;;;4902218;29;20211;-82
2021/06/16 10:32:37;;;;;;;0.10;0.10;;;26.80;94.40;;;;;;4903163;29;20228;-83
2021/06/16 10:35:07;;;;;;;0.10;0.10;;;27.00;94.70;;;;;;4903169;29;20274;-82
2021/06/16 10:37:38;;;;;;;0.10;0.10;;;26.80;94.60;;;;;;4902350;29;20743;-82
2021/06/16 10:40:25;;;;;;;0.10;0.10;;;26.90;94.50;;;;;;4902331;29;20246;-83
2021/06/16 10:43:14;;;;;;;0.20;0.20;;;27.00;94.30;;;;;;4902497;29;20589;-84
2021/06/16 10:45:49;;;;;;;0.10;0.10;;;27.10;94.10;;;;;;4903268;29;20223;-83
2021/06/16 10:48:17;;;;;;;0.10;0.10;;;27.20;93.10;;;;;;4906539;29;20238;-82
2021/06/16 10:51:01;;;;;;;0.10;0.10;;;27.20;93.10;;;;;;4896719;29;20236;-82
2021/06/16 10:53:30;;;;;;;0.10;0.10;;;27.40;93.20;;;;;;4898046;29;20228;-81
2021/06/16 10:56:08;;;;;;;0.10;0.10;;;27.40;92.80;;;;;;4904086;29;20272;-83
2021/06/16 10:58:45;;;;;;;0.10;0.10;;;27.50;92.70;;;;;;4902917;29;20291;-83
2021/06/16 11:01:15;;;;;;;0.10;0.10;;;27.40;99.30;;;;;;4906551;29;20200;-82
2021/06/16 11:04:02;;;;;;;0.20;0.20;;;27.80;95.80;;;;;;4903017;29;20227;-83
2021/06/16 11:06:37;;;;;;;0.10;0.10;;;27.80;96.70;;;;;;4900347;29;20232;-82
2021/06/16 11:09:08;;;;;;;0.10;0.10;;;27.50;96.10;;;;;;4900651;29;20254;-81
2021/06/16 11:12:07;;;;;;;0.10;0.10;;;27.90;97.20;;;;;;4901597;29;20271;-82
2021/06/16 11:14:47;;;;;;;0.10;0.10;;;27.60;91.90;;;;;;4901818;29;20246;-82
2021/06/16 11:17:48;;;;;;;0.10;0.10;;;27.70;92.20;;;;;;4903564;29;20210;-82
2021/06/16 11:20:23;;;;;;;0.10;0.10;;;27.60;92.50;;;;;;4812727;29;20211;-82
2021/06/16 11:22:54;;;;;;;0.10;0.10;;;27.80;92.20;;;;;;4810492;29;20230;-80
2021/06/16 11:25:33;;;;;;;0.10;0.10;;;28.20;93.30;;;;;;4855279;29;20239;-82
2021/06/16 11:28:16;;;;;;;0.10;0.10;;;28.00;92.70;;;;;;4918915;29;20207;-82
2021/06/16 11:31:05;;;;;;;0.10;0.10;;;28.00;91.80;;;;;;4921699;29;20218;-80
2021/06/16 11:33:54;;;;;;;0.10;0.10;;;27.90;91.30;;;;;;4920453;29;20660;-81
2021/06/16 11:36:39;;;;;;;0.10;0.10;;;28.10;91.80;;;;;;4920216;29;20211;-81
2021/06/16 11:39:10;;;;;;;0.10;0.10;;;28.40;91.50;;;;;;4920413;29;20206;-82
2021/06/16 11:41:45;;;;;;;0.10;0.10;;;28.00;90.90;;;;;;4920456;29;20210;-81
2021/06/16 11:44:14;;;;;;;0.10;0.10;;;28.10;90.60;;;;;;4923530;29;20548;-84
2021/06/16 11:46:43;;;;;;;0.10;0.10;;;28.70;91.10;;;;;;4921744;29;20239;-82
2021/06/16 11:49:13;;;;;;;0.10;0.10;;;28.40;89.20;;;;;;4908583;29;20250;-76
2021/06/16 11:51:43;;;;;;;0.10;0.10;;;28.80;99.30;;;;;;4907169;29;20199;-75
2021/06/16 11:54:20;;;;;;;0.10;0.10;;;28.40;90.10;;;;;;4906758;29;20241;-75
2021/06/16 11:56:52;;;;;;;0.10;0.10;;;28.60;90.30;;;;;;4906740;29;20207;-75
2021/06/16 11:59:43;;;;;;;0.10;0.10;;;28.50;86.70;;;;;;4910508;29;20225;-77
2021/06/16 12:02:18;;;;;;;0.10;0.10;;;28.50;87.30;;;;;;4913532;29;20207;-76
2021/06/16 12:04:57;;;;;;;0.10;0.10;;;28.80;87.90;;;;;;4899134;29;20234;-76
2021/06/16 12:07:27;;;;;;;0.10;0.10;;;29.00;88.50;;;;;;4901357;29;20199;-76
2021/06/16 12:09:57;;;;;;;0.10;0.10;;;29.40;90.20;;;;;;4909140;29;20255;-77
2021/06/16 12:12:27;;;;;;;0.10;0.10;;;29.60;85.80;;;;;;4910987;29;20226;-77
2021/06/16 12:15:11;;;;;;;0.10;0.10;;;30.00;86.30;;;;;;4909272;29;20250;-80
2021/06/16 12:18:00;;;;;;;0.10;0.10;;;29.90;83.20;;;;;;4914505;29;20234;-79
2021/06/16 12:20:31;;;;;;;0.10;0.10;;;30.00;82.00;;;;;;4919788;29;20211;-82
2021/06/16 12:22:59;;;;;;;0.10;0.10;;;30.40;81.70;;;;;;4925177;29;20233;-83
2021/06/16 12:25:29;;;;;;;0.10;0.10;;;30.40;80.50;;;;;;4917884;29;20238;-82
2021/06/16 12:27:59;;;;;;;0.10;0.10;;;30.50;79.60;;;;;;4922228;29;20255;-81
2021/06/16 12:30:29;;;;;;;0.10;0.10;;;30.80;79.00;;;;;;4917781;29;20735;-83
2021/06/16 12:33:17;;;;;;;0.10;0.10;;;31.00;80.40;;;;;;4919386;29;20254;-82
2021/06/16 12:35:57;;;;;;;0.10;0.10;;;31.30;77.20;;;;;;4924430;29;20285;-83
2021/06/16 12:38:40;;;;;;;0.00;0.00;;;31.90;76.20;;;;;;4922718;29;20210;-82
2021/06/16 12:41:32;;;;;;;0.10;0.10;;;32.40;73.10;;;;;;4919046;29;20623;-84
2021/06/16 12:44:17;;;;;;;0.10;0.10;;;33.50;80.80;;;;;;4921521;29;20242;-82
2021/06/16 12:46:57;;;;;;;0.10;0.10;;;33.40;68.80;;;;;;4918970;29;20217;-83
2021/06/16 12:49:27;;;;;;;0.00;0.00;;;34.40;65.20;;;;;;4917069;29;20202;-81
2021/06/16 12:51:59;;;;;;;0.10;0.10;;;34.20;64.00;;;;;;4917780;29;20742;-84
2021/06/16 12:54:29;;;;;;;0.00;0.00;;;34.80;62.80;;;;;;4918510;29;20277;-82
2021/06/16 12:57:05;;;;;;;0.00;0.00;;;34.90;61.10;;;;;;4917733;29;20206;-83
2021/06/16 12:59:37;;;;;;;0.00;0.00;;;34.60;60.50;;;;;;4922481;29;20260;-82
2021/06/16 13:02:05;;;;;;;0.00;0.00;;;33.90;63.20;;;;;;4922378;29;20269;-81
2021/06/16 13:04:50;;;;;;;0.10;0.10;;;33.70;62.80;;;;;;4919168;29;20256;-83
2021/06/16 13:07:20;;;;;;;0.10;0.10;;;34.00;61.80;;;;;;4917074;29;20217;-81
2021/06/16 13:10:08;;;;;;;0.00;0.00;;;34.80;60.40;;;;;;4917188;29;20210;-82
2021/06/16 13:12:36;;;;;;;0.10;0.10;;;35.50;58.00;;;;;;4917000;29;20210;-82
2021/06/16 13:15:10;;;;;;;0.00;0.00;;;35.20;58.90;;;;;;4916626;29;20230;-82
2021/06/16 13:17:44;;;;;;;0.03;0.03;;;34.80;59.30;;;;;;4917493;29;20198;-82
2021/06/16 13:20:13;;;;;;;0.00;0.00;;;34.40;59.00;;;;;;4917539;29;20691;-83
2021/06/16 13:22:45;;;;;;;0.00;0.00;;;34.20;59.60;;;;;;4917980;29;20210;-83
2021/06/16 13:25:23;;;;;;;0.00;0.00;;;34.40;58.90;;;;;;4916756;29;20234;-83
2021/06/16 13:27:53;;;;;;;0.10;0.10;;;35.00;58.00;;;;;;4917404;29;20272;-85
2021/06/16 13:30:25;;;;;;;0.00;0.00;;;35.70;57.30;;;;;;4921225;29;20242;-83
2021/06/16 13:32:53;;;;;;;0.00;0.00;;;36.60;58.00;;;;;;4921026;29;20206;-82
2021/06/16 13:35:21;;;;;;;0.00;0.00;;;36.90;53.00;;;;;;4921415;29;20783;-82
2021/06/16 13:37:49;;;;;;;0.00;0.00;;;37.30;53.30;;;;;;4922396;29;20679;-81
2021/06/16 13:40:17;;;;;;;0.00;0.00;;;38.10;52.90;;;;;;4924007;29;20266;-82
2021/06/16 13:42:50;;;;;;;0.00;0.00;;;37.80;50.80;;;;;;4924219;29;20210;-82
2021/06/16 13:45:19;;;;;;;0.00;0.00;;;37.90;51.30;;;;;;4922267;29;20703;-82
2021/06/16 13:47:49;;;;;;;0.00;0.00;;;37.80;52.60;;;;;;4923650;29;20622;-83
2021/06/16 13:50:17;;;;;;;0.00;0.00;;;37.20;52.30;;;;;;4928316;29;20234;-82
2021/06/16 13:52:46;;;;;;;0.00;0.00;;;36.60;52.40;;;;;;4922573;29;20205;-83
2021/06/16 13:55:14;;;;;;;0.00;0.00;;;36.40;52.50;;;;;;4923453;29;20222;-83
2021/06/16 13:57:42;;;;;;;0.00;0.00;;;36.00;53.50;;;;;;4922743;29;20206;-83
2021/06/16 14:00:13;;;;;;;0.00;0.00;;;35.80;54.30;;;;;;4925578;29;20213;-82
2021/06/16 14:02:42;;;;;;;0.00;0.00;;;35.40;54.50;;;;;;4924503;29;20213;-82
2021/06/16 14:05:13;;;;;;;0.00;0.00;;;35.10;56.20;;;;;;4923456;29;20241;-82
2021/06/16 14:07:43;;;;;;;0.00;0.00;;;34.60;54.70;;;;;;4923550;29;20587;-82
2021/06/16 14:10:12;;;;;;;0.10;0.10;;;34.40;56.20;;;;;;4922527;29;20257;-83
2021/06/16 14:12:40;;;;;;;0.00;0.00;;;33.90;56.30;;;;;;4922117;29;20615;-82
2021/06/16 14:15:10;;;;;;;0.00;0.00;;;33.50;56.60;;;;;;4921755;29;20932;-81
2021/06/16 14:17:40;;;;;;;0.00;0.00;;;33.10;57.40;;;;;;4921452;29;20213;-84
2021/06/16 14:20:09;;;;;;;0.00;0.00;;;32.80;57.90;;;;;;4922935;29;20265;-84
2021/06/16 14:22:38;;;;;;;0.00;0.00;;;32.60;58.30;;;;;;4921810;29;20202;-84
2021/06/16 14:25:07;;;;;;;0.10;0.10;;;32.50;57.90;;;;;;4920526;29;20233;-83
2021/06/16 14:27:37;;;;;;;0.05;0.05;;;32.20;57.80;;;;;;4919724;29;20237;-83
2021/06/16 14:30:07;;;;;;;0.10;0.10;;;32.00;57.50;;;;;;4920365;29;20198;-82
2021/06/16 14:32:36;;;;;;;0.00;0.00;;;31.90;57.90;;;;;;4920379;29;20206;-83
2021/06/16 14:35:05;;;;;;;0.10;0.10;;;31.80;57.30;;;;;;4920957;29;20234;-82
2021/06/16 14:37:33;;;;;;;0.10;0.10;;;31.70;58.00;;;;;;4921334;29;20214;-83
2021/06/16 14:40:03;;;;;;;0.08;0.08;;;31.70;58.30;;;;;;4921215;29;20625;-83
2021/06/16 14:42:31;;;;;;;0.00;0.00;;;31.80;59.40;;;;;;4921738;29;20206;-84
2021/06/16 14:44:59;;;;;;;0.00;0.00;;;31.80;61.00;;;;;;4920718;29;20234;-82
2021/06/16 14:47:27;;;;;;;0.10;0.10;;;31.70;59.60;;;;;;4920608;29;20262;-83
2021/06/16 14:49:55;;;;;;;0.00;0.00;;;31.60;58.00;;;;;;4926144;29;20668;-81
2021/06/16 14:52:24;;;;;;;0.00;0.00;;;31.60;59.00;;;;;;4926216;29;20205;-83
2021/06/16 14:54:52;;;;;;;0.00;0.00;;;31.60;58.30;;;;;;4923209;29;20226;-82
2021/06/16 14:57:23;;;;;;;0.00;0.00;;;31.80;61.10;;;;;;4925721;29;20202;-82
2021/06/16 14:59:51;;;;;;;0.00;0.00;;;31.80;59.60;;;;;;4926574;29;20214;-84
2021/06/16 15:02:19;;;;;;;0.10;0.10;;;31.70;58.40;;;;;;4925250;29;20250;-82
2021/06/16 15:04:47;;;;;;;0.00;0.00;;;31.70;57.60;;;;;;4924353;29;20290;-82
2021/06/16 15:07:15;;;;;;;0.00;0.00;;;31.70;58.10;;;;;;4924565;29;20214;-84
2021/06/16 15:09:44;;;;;;;0.03;0.03;;;31.40;59.40;;;;;;4924725;29;20210;-84
2021/06/16 15:12:12;;;;;;;0.05;0.05;;;31.20;58.50;;;;;;4926789;29;20206;-84
2021/06/16 15:14:41;;;;;;;0.00;0.00;;;31.20;59.40;;;;;;4923974;29;20572;-84
2021/06/16 15:17:09;;;;;;;0.10;0.10;;;31.20;59.30;;;;;;4923138;29;20202;-81
2021/06/16 15:19:37;;;;;;;0.10;0.10;;;31.20;59.00;;;;;;4922176;29;20423;-83
2021/06/16 15:22:05;;;;;;;0.00;0.00;;;31.10;59.10;;;;;;4923333;29;20206;-81
2021/06/16 15:24:33;;;;;;;0.10;0.10;;;31.10;58.60;;;;;;4921629;29;20842;-83
2021/06/16 15:27:01;;;;;;;0.10;0.10;;;31.20;61.80;;;;;;4921987;29;20213;-85
2021/06/16 15:29:29;;;;;;;0.10;0.10;;;31.40;58.90;;;;;;4923307;29;20214;-83
2021/06/16 15:31:59;;;;;;;0.00;0.00;;;31.30;59.70;;;;;;4922528;29;20676;-84
2021/06/16 15:34:31;;;;;;;0.10;0.10;;;31.40;59.80;;;;;;4922807;29;20289;-83
2021/06/16 15:36:59;;;;;;;0.00;0.00;;;31.40;59.30;;;;;;4922289;29;20611;-84
2021/06/16 15:39:27;;;;;;;0.05;0.05;;;31.10;58.40;;;;;;4922176;29;20274;-84
2021/06/16 15:41:56;;;;;;;0.00;0.00;;;30.80;59.50;;;;;;4921995;29;20262;-81
2021/06/16 15:44:24;;;;;;;0.00;0.00;;;31.00;58.30;;;;;;4921183;29;20301;-81
2021/06/16 15:46:52;;;;;;;0.10;0.10;;;30.90;58.40;;;;;;4921497;29;20743;-84
2021/06/16 15:49:21;;;;;;;0.00;0.00;;;30.90;59.70;;;;;;4920949;29;20281;-84
2021/06/16 15:51:49;;;;;;;0.00;0.00;;;30.80;59.10;;;;;;4919924;29;20242;-84
2021/06/16 15:54:17;;;;;;;0.10;0.10;;;30.70;59.40;;;;;;4921362;29;20712;-83
2021/06/16 15:56:45;;;;;;;0.10;0.10;;;30.80;60.60;;;;;;4920961;29;20625;-84
2021/06/16 15:59:14;;;;;;;0.10;0.10;;;30.80;59.80;;;;;;4905721;29;20204;-84
2021/06/16 16:01:43;;;;;;;0.00;0.00;;;30.70;59.60;;;;;;4910148;29;20676;-80
2021/06/16 16:04:11;;;;;;;0.10;0.10;;;30.70;75.90;;;;;;4902031;29;20282;-78
2021/06/16 16:06:40;;;;;;;0.10;0.10;;;30.60;61.30;;;;;;4899968;29;20207;-74
2021/06/16 16:09:08;;;;;;;0.10;0.10;;;30.60;65.80;;;;;;4900163;29;20267;-77
2021/06/16 16:11:36;;;;;;;0.10;0.10;;;30.60;64.00;;;;;;4898911;29;20196;-80
2021/06/16 16:14:04;;;;;;;0.10;0.10;;;30.90;73.60;;;;;;4900502;29;20215;-80
2021/06/16 16:16:33;;;;;;;0.00;0.00;;;30.90;60.30;;;;;;4901585;29;20211;-80
2021/06/16 16:19:00;;;;;;;0.10;0.10;;;31.00;58.90;;;;;;4901079;29;20218;-80
2021/06/16 16:21:29;;;;;;;0.10;0.10;;;31.10;57.60;;;;;;4901155;29;20728;-80
2021/06/16 16:23:58;;;;;;;0.00;0.00;;;31.30;65.00;;;;;;4901688;29;20243;-81
2021/06/16 16:26:26;;;;;;;0.00;0.00;;;31.20;58.20;;;;;;4899439;29;20286;-78
2021/06/16 16:28:54;;;;;;;0.00;0.00;;;31.40;57.60;;;;;;4900762;29;20211;-81
2021/06/16 16:31:22;;;;;;;0.00;0.00;;;;;;;;;;4901223;29;20244;-81
2021/06/16 16:33:50;;;;;;;0.05;0.05;;;31.40;57.00;;;;;;4900890;29;20243;-79
2021/06/16 16:36:18;;;;;;;0.00;0.00;;;31.40;57.60;;;;;;4899994;29;20220;-80
2021/06/16 16:38:46;;;;;;;0.10;0.10;;;31.40;57.40;;;;;;4882829;29;20207;-79
2021/06/16 16:41:15;;;;;;;0.10;0.10;;;31.40;57.50;;;;;;4900503;29;20362;-80
2021/06/16 16:43:43;;;;;;;0.10;0.10;;;31.50;57.60;;;;;;4902059;29;20732;-81
2021/06/16 16:46:11;;;;;;;0.10;0.10;;;31.20;57.70;;;;;;4901685;29;20259;-82
2021/06/16 16:48:39;;;;;;;0.10;0.10;;;31.20;57.30;;;;;;4902555;29;20207;-82
2021/06/16 16:51:07;;;;;;;0.08;0.08;;;31.10;57.90;;;;;;4899412;29;20207;-80
2021/06/16 16:53:35;;;;;;;0.00;0.00;;;31.20;58.50;;;;;;4899109;29;20351;-80
2021/06/16 16:56:03;;;;;;;0.00;0.00;;;31.10;58.60;;;;;;4899894;29;20226;-79
2021/06/16 16:58:33;;;;;;;0.00;0.00;;;31.00;58.60;;;;;;4899613;29;20279;-80
2021/06/16 17:01:00;;;;;;;0.10;0.10;;;31.00;59.00;;;;;;4900242;29;20217;-79
2021/06/16 17:03:29;;;;;;;0.00;0.00;;;30.80;58.10;;;;;;4898581;29;20698;-81
2021/06/16 17:05:57;;;;;;;0.00;0.00;;;30.70;58.50;;;;;;4900065;29;20234;-79
2021/06/16 17:08:25;;;;;;;0.00;0.00;;;30.50;58.90;;;;;;4899740;29;20219;-78
2021/06/16 17:10:53;;;;;;;0.00;0.00;;;30.40;60.60;;;;;;4899894;29;20740;-81
2021/06/16 17:13:21;;;;;;;0.10;0.10;;;30.30;59.00;;;;;;4901500;29;20271;-80
2021/06/16 17:15:50;;;;;;;0.10;0.10;;;30.20;60.40;;;;;;4899286;29;20223;-79
2021/06/16 17:18:18;;;;;;;0.10;0.10;;;30.30;59.20;;;;;;4902181;29;20290;-80
2021/06/16 17:20:46;;;;;;;0.00;0.00;;;30.40;60.10;;;;;;4912630;29;20192;-77
2021/06/16 17:23:13;;;;;;;0.10;0.10;;;30.50;60.70;;;;;;4922583;29;20202;-79